Time;durP1;ratioP1;P1;durP2;ratioP2;P2;SDS_P1;SDS_P2;PMS_P1;PMS_P2;Temp;Humidity;BMP_temperature;BMP_pressure;BME280_temperature;BME280_humidity;BME280_pressure;Samples;Min_cycle;Max_cycle;Signal;HPM_P1;HPM_P2
2022/10/31 00:03:03;;;;;;;;;;;;;;;9.12;76.68;98123.56;10333279;28;20103;-56
2022/10/31 00:08:02;;;;;;;32.70;19.85;;;;;;;9.14;76.99;98114.09;10332996;28;19989;-56
2022/10/31 00:13:01;;;;;;;29.83;16.15;;;;;;;9.17;77.07;98125.34;10331959;28;20311;-56
2022/10/31 00:18:00;;;;;;;26.33;16.38;;;;;;;9.18;77.24;98120.16;10331782;28;20520;-55
2022/10/31 00:23:01;;;;;;;27.67;16.95;;;;;;;9.17;77.34;98117.59;10332384;28;20139;-56
2022/10/31 00:28:00;;;;;;;21.73;13.85;;;;;;;9.17;77.41;98113.25;10331759;28;20480;-56
2022/10/31 00:32:58;;;;;;;22.33;14.98;;;;;;;9.14;77.78;98131.38;10330499;28;20496;-56
2022/10/31 00:37:57;;;;;;;22.05;14.75;;;;;;;9.15;77.19;98127.91;10331815;28;20036;-56
2022/10/31 00:42:57;;;;;;;35.88;19.60;;;;;;;9.06;77.14;98130.41;10331407;28;20084;-56
2022/10/31 00:47:55;;;;;;;30.15;18.17;;;;;;;9.07;77.67;98129.56;10334199;28;20498;-56
2022/10/31 00:52:54;;;;;;;22.73;12.07;;;;;;;9.10;77.82;98132.19;10334288;28;20478;-56
2022/10/31 00:57:53;;;;;;;22.58;12.35;;;;;;;9.07;77.82;98143.38;10334474;28;20443;-56
2022/10/31 01:02:52;;;;;;;21.95;12.90;;;;;;;9.10;77.63;98145.13;10333637;28;20036;-56
2022/10/31 01:07:51;;;;;;;25.08;12.43;;;;;;;9.18;77.54;98145.19;10334496;28;20091;-55
2022/10/31 01:12:50;;;;;;;20.17;11.80;;;;;;;9.25;77.77;98140.09;10333461;28;20385;-56
2022/10/31 01:17:49;;;;;;;19.33;10.68;;;;;;;9.34;77.30;98141.94;10333365;28;20552;-56
2022/10/31 01:22:48;;;;;;;19.05;12.50;;;;;;;9.44;77.45;98143.78;10333695;28;20057;-56
2022/10/31 01:27:47;;;;;;;24.58;13.93;;;;;;;9.52;77.27;98136.94;10333376;28;20037;-56
2022/10/31 01:32:46;;;;;;;25.55;13.93;;;;;;;9.59;77.27;98143.06;10332816;28;20100;-56
2022/10/31 01:37:45;;;;;;;23.40;14.10;;;;;;;9.48;76.90;98140.34;10333726;28;20104;-55
2022/10/31 01:42:44;;;;;;;24.88;13.68;;;;;;;9.37;76.71;98143.69;10332174;28;20141;-56
2022/10/31 01:47:46;;;;;;;21.65;13.07;;;;;;;9.27;77.01;98146.16;10334700;28;20132;-56
2022/10/31 01:52:49;;;;;;;27.60;18.75;;;;;;;9.21;77.38;98155.56;10337649;28;20076;-56
2022/10/31 01:57:51;;;;;;;30.25;18.65;;;;;;;9.23;77.27;98153.88;10337311;28;20073;-56
2022/10/31 02:02:51;;;;;;;25.45;17.20;;;;;;;9.33;77.22;98151.44;10336711;28;20064;-56
2022/10/31 02:08:13;;;;;;;23.15;15.38;;;;;;;9.45;77.57;98144.66;10337645;28;20483;-56
2022/10/31 02:13:13;;;;;;;23.63;14.25;;;;;;;9.52;77.33;98143.88;10336790;28;20084;-56
2022/10/31 02:18:12;;;;;;;21.05;12.75;;;;;;;9.59;77.09;98143.06;10336673;28;20076;-56
2022/10/31 02:23:59;;;;;;;22.88;13.55;;;;;;;9.66;77.40;98144.84;10336443;28;20064;-55
2022/10/31 02:29:12;;;;;;;18.63;12.00;;;;;;;9.77;77.39;98147.53;10316776;28;20080;-56
2022/10/31 02:34:34;;;;;;;16.88;12.30;;;;;;;9.86;77.57;98152.78;10335964;28;20468;-56
2022/10/31 02:40:02;;;;;;;17.48;12.20;;;;;;;9.92;76.91;98150.25;10336162;28;20071;-56
2022/10/31 02:45:13;;;;;;;24.30;12.57;;;;;;;9.98;77.06;98152.03;10335823;28;20057;-56
2022/10/31 02:50:18;;;;;;;21.08;12.52;;;;;;;10.00;76.90;98152.88;10335033;28;20148;-55
2022/10/31 02:55:26;;;;;;;21.95;13.70;;;;;;;10.11;76.38;98158.16;10332483;28;20722;-56
2022/10/31 03:00:25;;;;;;;21.25;12.43;;;;;;;10.13;76.34;98157.31;10332763;28;20088;-56
2022/10/31 03:05:42;;;;;;;;;;;;;;;10.23;76.55;98171.22;10333778;28;20053;-56
2022/10/31 03:10:56;;;;;;;21.02;12.38;;;;;;;10.23;76.48;98172.94;10332497;28;19987;-56
2022/10/31 03:16:08;;;;;;;20.65;12.93;;;;;;;10.31;75.56;98173.88;10332139;28;20080;-56
2022/10/31 03:21:18;;;;;;;22.63;12.63;;;;;;;10.33;75.69;98173.03;10332276;28;20072;-56
2022/10/31 03:26:19;;;;;;;20.30;13.05;;;;;;;10.28;75.69;98169.50;10332282;28;20053;-56
2022/10/31 03:31:20;;;;;;;22.90;13.90;;;;;;;10.06;76.14;98180.59;10331057;28;20479;-56
2022/10/31 03:36:20;;;;;;;20.50;12.23;;;;;;;9.88;76.20;98178.72;10332364;28;20460;-56
2022/10/31 03:41:23;;;;;;;18.85;10.55;;;;;;;9.60;76.78;98183.66;10331493;28;20061;-56
2022/10/31 03:46:22;;;;;;;17.48;11.02;;;;;;;9.35;76.94;98186.00;10331127;28;20068;-56
2022/10/31 03:51:33;;;;;;;25.45;13.40;;;;;;;9.19;77.36;98190.97;10295112;28;1120865;-56
2022/10/31 03:56:31;;;;;;;24.73;13.27;;;;;;;9.07;77.73;98200.31;10332774;28;20069;-56
2022/10/31 04:01:34;;;;;;;23.58;14.07;;;;;;;9.04;77.78;98199.41;10332923;28;20041;-56
2022/10/31 04:06:36;;;;;;;30.13;13.52;;;;;;;8.98;77.66;98196.75;10333282;28;20064;-56
2022/10/31 04:11:42;;;;;;;24.90;16.70;;;;;;;8.93;78.15;98191.53;10332538;28;20057;-56
2022/10/31 04:16:43;;;;;;;24.27;13.82;;;;;;;8.90;78.11;98204.41;10331818;28;20067;-56
2022/10/31 04:21:43;;;;;;;26.20;13.25;;;;;;;8.83;78.44;98203.50;10331983;28;20076;-56
2022/10/31 04:26:42;;;;;;;28.23;15.35;;;;;;;8.81;78.62;98212.06;10332265;28;20096;-56
2022/10/31 04:31:41;;;;;;;31.42;16.02;;;;;;;8.71;78.83;98209.34;10331900;28;20108;-56
2022/10/31 04:36:39;;;;;;;24.90;16.10;;;;;;;8.55;80.09;98214.28;10331779;28;20041;-56
2022/10/31 04:41:38;;;;;;;27.55;14.25;;;;;;;8.42;80.89;98214.09;10331696;28;20109;-56
2022/10/31 04:46:37;;;;;;;22.73;13.70;;;;;;;8.42;80.52;98213.25;10330983;28;20477;-56
2022/10/31 04:51:36;;;;;;;21.33;12.73;;;;;;;8.39;80.63;98214.06;10330951;28;20420;-56
2022/10/31 04:56:35;;;;;;;20.33;12.55;;;;;;;8.33;80.55;98221.72;10331330;28;20045;-56
2022/10/31 05:01:34;;;;;;;21.27;12.40;;;;;;;8.23;81.10;98217.28;10330511;28;20564;-56
2022/10/31 05:06:33;;;;;;;23.65;12.55;;;;;;;8.21;80.97;98227.56;10330627;28;20497;-56
2022/10/31 05:11:32;;;;;;;26.05;14.75;;;;;;;8.17;81.06;98228.38;10331404;28;20485;-56
2022/10/31 05:16:31;;;;;;;25.48;14.25;;;;;;;8.15;81.36;98234.34;10330275;28;20048;-56
2022/10/31 05:21:30;;;;;;;29.17;14.43;;;;;;;8.12;81.17;98224.84;10330064;28;20045;-56
2022/10/31 05:26:29;;;;;;;35.92;14.60;;;;;;;8.16;81.61;98247.31;10315858;28;20124;-56
2022/10/31 05:31:28;;;;;;;23.33;13.90;;;;;;;8.17;81.75;98248.19;10332417;28;20029;-56
2022/10/31 05:36:27;;;;;;;26.75;14.70;;;;;;;8.16;81.90;98241.28;10328953;28;20529;-56
2022/10/31 05:41:26;;;;;;;32.53;17.75;;;;;;;8.12;82.77;98255.00;10329970;28;20725;-56
2022/10/31 05:46:25;;;;;;;38.95;23.48;;;;;;;8.17;82.77;98258.53;10311023;28;20030;-55
2022/10/31 05:51:24;;;;;;;42.15;18.50;;;;;;;8.21;82.68;98256.00;10316690;28;20055;-55
2022/10/31 05:56:23;;;;;;;40.53;21.73;;;;;;;8.31;82.38;98262.19;10333105;28;20037;-56
2022/10/31 06:01:22;;;;;;;33.88;19.83;;;;;;;8.41;81.84;98268.38;10327280;28;20036;-56
2022/10/31 06:06:20;;;;;;;36.75;21.48;;;;;;;8.49;81.88;98266.81;10306116;28;20505;-55
2022/10/31 06:11:19;;;;;;;44.13;24.23;;;;;;;8.56;81.87;98278.97;10299613;28;20033;-56
2022/10/31 06:16:18;;;;;;;46.95;24.95;;;;;;;8.65;81.67;98281.72;10314583;28;20075;-56
2022/10/31 06:21:17;;;;;;;65.10;29.73;;;;;;;8.71;81.59;98275.75;10307445;28;20578;-56
2022/10/31 06:26:16;;;;;;;47.08;26.42;;;;;;;8.82;81.64;98276.78;10307230;28;20112;-56
2022/10/31 06:31:15;;;;;;;49.75;24.00;;;;;;;9.04;81.08;98297.78;10329395;28;20520;-56
2022/10/31 06:36:14;;;;;;;47.08;23.83;;;;;;;9.20;81.09;98298.88;10312843;28;20061;-55
2022/10/31 06:41:13;;;;;;;45.70;25.90;;;;;;;9.32;80.79;98302.53;10299363;28;20036;-56
2022/10/31 06:46:12;;;;;;;45.67;26.55;;;;;;;9.52;80.63;98302.75;10300503;28;20048;-56
2022/10/31 06:51:11;;;;;;;43.60;26.52;;;;;;;9.69;79.88;98292.59;10332694;28;20085;-56
2022/10/31 06:56:10;;;;;;;44.42;26.83;;;;;;;9.83;80.08;98286.69;10292815;28;20129;-55
2022/10/31 07:01:09;;;;;;;48.60;26.27;;;;;;;9.95;79.59;98287.66;10301581;28;20045;-56
2022/10/31 07:06:08;;;;;;;38.63;24.83;;;;;;;10.16;78.21;98289.59;10306080;28;20036;-56
2022/10/31 07:11:07;;;;;;;60.88;32.72;;;;;;;10.32;78.17;98297.53;10336522;28;20120;-55
2022/10/31 07:16:07;;;;;;;48.90;31.60;;;;;;;10.43;77.21;98290.72;10335017;28;20255;-56
2022/10/31 07:21:06;;;;;;;48.42;25.77;;;;;;;10.68;76.58;98290.88;10319724;28;20501;-55
2022/10/31 07:26:05;;;;;;;36.30;23.17;;;;;;;10.90;76.47;98289.34;10314627;28;20466;-56
2022/10/31 07:31:04;;;;;;;34.70;20.65;;;;;;;11.13;76.25;98284.28;10305531;28;20525;-55
2022/10/31 07:36:03;;;;;;;37.08;24.33;;;;;;;11.35;75.50;98275.72;10321917;28;20107;-56
2022/10/31 07:41:02;;;;;;;35.08;24.85;;;;;;;11.55;75.25;98278.41;10310149;28;20080;-57
2022/10/31 07:46:01;;;;;;;33.13;23.88;;;;;;;11.74;73.75;98283.69;10309760;28;20036;-56
2022/10/31 07:51:00;;;;;;;36.83;22.60;;;;;;;11.95;72.63;98273.31;10318799;28;20128;-55
2022/10/31 07:55:59;;;;;;;33.10;20.95;;;;;;;12.22;71.73;98274.19;10336465;28;20034;-55
2022/10/31 08:00:58;;;;;;;28.02;20.52;;;;;;;12.51;70.62;98269.06;10336694;28;20112;-56
2022/10/31 08:05:57;;;;;;;26.08;12.85;;;;;;;12.78;69.13;98270.75;10351299;28;20069;-56
2022/10/31 08:10:57;;;;;;;17.63;11.43;;;;;;;13.05;67.09;98267.22;10306672;28;20022;-56
2022/10/31 08:16:03;;;;;;;18.55;11.13;;;;;;;13.32;66.30;98265.38;10312689;28;20065;-56
2022/10/31 08:21:02;;;;;;;26.00;11.27;;;;;;;13.56;65.10;98259.22;10295448;28;20084;-55
2022/10/31 08:26:01;;;;;;;22.25;10.70;;;;;;;13.84;63.81;98254.72;10316256;28;20068;-56
2022/10/31 08:31:00;;;;;;;17.83;11.23;;;;;;;14.14;63.26;98252.78;10324133;28;20037;-56
2022/10/31 08:35:59;;;;;;;24.90;11.75;;;;;;;14.36;61.90;98241.31;10334955;28;20104;-55
2022/10/31 08:40:58;;;;;;;18.60;9.95;;;;;;;14.56;61.20;98240.28;10335566;28;20059;-56
2022/10/31 08:45:57;;;;;;;19.00;9.48;;;;;;;14.85;61.12;98239.16;10333386;28;20061;-56
2022/10/31 08:51:00;;;;;;;21.48;10.13;;;;;;;15.16;59.57;98242.31;10337962;28;20121;-56
2022/10/31 08:55:59;;;;;;;23.80;9.95;;;;;;;15.45;58.44;98249.78;10336931;28;20060;-55
2022/10/31 09:00:59;;;;;;;;;;;;;;;15.71;57.30;98245.97;10326753;28;20029;-56
2022/10/31 09:06:00;;;;;;;21.65;11.55;;;;;;;15.99;56.47;98239.47;10337578;28;19952;-56
2022/10/31 09:10:59;;;;;;;22.88;11.63;;;;;;;16.32;55.57;98244.22;10302909;28;20085;-56
2022/10/31 09:15:58;;;;;;;21.42;11.98;;;;;;;16.57;54.35;98235.06;10295383;28;20434;-56
2022/10/31 09:20:59;;;;;;;23.00;12.45;;;;;;;16.86;53.54;98231.06;10294901;28;20084;-56
2022/10/31 09:26:01;;;;;;;22.67;11.27;;;;;;;17.10;52.87;98235.00;10306923;28;20072;-56
2022/10/31 09:30:59;;;;;;;17.45;11.85;;;;;;;17.44;52.24;98235.16;10309293;28;20077;-56
2022/10/31 09:35:58;;;;;;;;;;;;;;;17.77;51.63;98232.72;10317168;28;20128;-56
2022/10/31 09:41:06;;;;;;;22.47;10.10;;;;;;;18.05;51.07;98227.72;10311461;28;19988;-56
2022/10/31 09:46:21;;;;;;;16.95;9.20;;;;;;;18.38;50.45;98219.91;10333808;28;20072;-56
2022/10/31 09:51:29;;;;;;;12.50;5.43;;;;;;;18.67;49.06;98226.22;10332816;28;20088;-56
2022/10/31 09:56:31;;;;;;;9.27;4.85;;;;;;;18.82;47.61;98224.06;10329624;28;20068;-56
2022/10/31 10:01:42;;;;;;;11.90;4.80;;;;;;;19.17;46.15;98211.69;10322666;28;20703;-55
2022/10/31 10:06:46;;;;;;;11.38;4.05;;;;;;;19.56;44.95;98208.00;10294779;28;20057;-56
2022/10/31 10:12:33;;;;;;;7.53;3.08;;;;;;;19.90;44.47;98193.78;10300505;28;20088;-56
2022/10/31 10:18:11;;;;;;;5.85;3.17;;;;;;;20.02;44.36;98186.34;10268781;28;20513;-56
2022/10/31 10:23:35;;;;;;;6.28;3.05;;;;;;;20.25;43.83;98195.28;10327915;28;20073;-56
2022/10/31 10:28:39;;;;;;;9.20;3.72;;;;;;;20.32;42.59;98182.75;10337293;28;20065;-56
2022/10/31 10:34:20;;;;;;;7.15;3.28;;;;;;;20.50;42.77;98190.09;10340310;28;20772;-56
2022/10/31 10:39:27;;;;;;;10.13;3.55;;;;;;;20.56;42.88;98179.31;10295157;28;20081;-56
2022/10/31 10:49:53;;;;;;;10.23;4.43;;;;;;;20.71;42.42;98173.50;10300021;28;20081;-56
2022/10/31 10:55:25;;;;;;;10.25;3.67;;;;;;;20.68;41.87;98171.00;10311397;28;20136;-56
2022/10/31 11:00:47;;;;;;;11.07;3.78;;;;;;;20.73;42.01;98168.19;10332168;28;20075;-56
2022/10/31 11:05:53;;;;;;;10.80;3.67;;;;;;;20.85;41.61;98162.47;10318526;28;20061;-56
2022/10/31 11:11:16;;;;;;;10.15;3.60;;;;;;;21.08;41.63;98153.72;10338508;28;20069;-56
2022/10/31 11:16:34;;;;;;;7.53;3.30;;;;;;;21.23;40.57;98146.19;10336704;28;20069;-56
2022/10/31 11:21:34;;;;;;;8.93;3.30;;;;;;;21.41;39.88;98140.19;10336612;28;20453;-56
2022/10/31 11:26:35;;;;;;;8.45;3.13;;;;;;;21.58;39.67;98139.53;10312684;28;20045;-56
2022/10/31 11:31:35;;;;;;;9.10;2.90;;;;;;;21.77;39.37;98131.72;10306501;28;20080;-56
2022/10/31 11:36:38;;;;;;;8.52;3.33;;;;;;;21.96;39.44;98135.34;10294170;28;20123;-56
2022/10/31 11:41:38;;;;;;;12.80;3.47;;;;;;;22.12;39.40;98126.81;10299510;28;20606;-56
2022/10/31 11:46:40;;;;;;;7.03;3.10;;;;;;;22.09;38.01;98124.31;10298943;28;20077;-56
2022/10/31 11:51:39;;;;;;;8.98;3.13;;;;;;;22.22;37.58;98117.56;10311758;28;20149;-56
2022/10/31 11:56:40;;;;;;;6.43;2.85;;;;;;;22.24;37.28;98120.16;10325217;28;20121;-56
2022/10/31 12:01:39;;;;;;;8.82;2.80;;;;;;;22.33;37.05;98109.19;10302020;28;20064;-55
2022/10/31 12:06:41;;;;;;;8.25;2.80;;;;;;;22.43;37.14;98107.84;10318239;28;20963;-55
2022/10/31 12:12:04;;;;;;;9.45;3.17;;;;;;;22.51;37.10;98107.53;10312276;28;20076;-55
2022/10/31 12:17:15;;;;;;;8.43;2.97;;;;;;;22.66;36.48;98096.28;10317686;28;20497;-55
2022/10/31 12:22:46;;;;;;;8.95;2.85;;;;;;;22.83;36.94;98092.91;10312398;28;20073;-55
2022/10/31 12:27:51;;;;;;;8.55;2.75;;;;;;;22.90;36.79;98096.13;10290606;28;20118;-56
2022/10/31 12:32:58;;;;;;;8.90;2.97;;;;;;;23.01;35.69;98101.78;10298601;28;20061;-55
2022/10/31 12:38:09;;;;;;;10.68;3.35;;;;;;;23.20;35.44;98107.09;10314686;28;20080;-56
2022/10/31 12:43:27;;;;;;;9.52;3.05;;;;;;;23.21;34.61;98099.09;10291521;28;20704;-55
2022/10/31 12:48:38;;;;;;;7.25;2.90;;;;;;;23.31;34.78;98096.00;10312592;28;20441;-55
2022/10/31 12:54:05;;;;;;;7.25;2.70;;;;;;;23.54;34.58;98095.81;10307136;28;20049;-55
2022/10/31 12:59:15;;;;;;;9.02;2.58;;;;;;;23.59;34.22;98100.88;10308302;28;20061;-55
2022/10/31 13:04:24;;;;;;;7.47;2.72;;;;;;;23.44;33.92;98089.19;10305872;28;20068;-56
2022/10/31 13:09:26;;;;;;;;;;;;;;;23.46;33.70;98103.22;10311947;28;20057;-56
2022/10/31 13:14:38;;;;;;;4.88;2.38;;;;;;;23.50;33.76;98096.88;10326099;28;19964;-56
2022/10/31 13:19:42;;;;;;;8.93;2.38;;;;;;;23.41;33.91;98094.63;10332021;28;20075;-55
2022/10/31 13:25:07;;;;;;;7.70;2.63;;;;;;;23.37;33.89;98101.88;10329178;28;20076;-55
2022/10/31 13:30:16;;;;;;;9.50;2.90;;;;;;;23.41;34.04;98099.94;10290969;28;20065;-55
2022/10/31 13:35:41;;;;;;;12.63;2.53;;;;;;;23.35;33.93;98100.22;10289823;28;20524;-55
2022/10/31 13:40:48;;;;;;;5.85;2.17;;;;;;;23.29;34.08;98097.88;10296887;28;20064;-55
2022/10/31 13:45:52;;;;;;;9.18;2.60;;;;;;;23.12;34.12;98098.66;10339244;28;20057;-56
2022/10/31 13:51:04;;;;;;;7.65;2.58;;;;;;;23.15;34.09;98094.06;10339294;28;20520;-55
2022/10/31 13:56:09;;;;;;;13.05;3.30;;;;;;;23.21;34.04;98104.38;10338957;28;20501;-55
2022/10/31 14:01:10;;;;;;;12.98;3.63;;;;;;;23.16;34.50;98103.75;10339253;28;20069;-55
2022/10/31 14:06:11;;;;;;;7.25;3.45;;;;;;;23.00;34.63;98097.44;10339016;28;20057;-55
2022/10/31 14:11:26;;;;;;;8.40;3.53;;;;;;;23.03;34.55;98107.88;10336806;28;20068;-55
2022/10/31 14:16:32;;;;;;;12.15;2.67;;;;;;;22.87;34.57;98109.50;10307323;28;20468;-55
2022/10/31 14:21:38;;;;;;;9.43;2.70;;;;;;;22.77;34.88;98109.06;10298613;28;20073;-55
2022/10/31 14:26:37;;;;;;;8.70;2.50;;;;;;;22.63;34.68;98116.72;10306403;28;20053;-55
2022/10/31 14:31:39;;;;;;;8.80;2.47;;;;;;;22.54;34.86;98117.97;10317365;28;20076;-55
2022/10/31 14:36:46;;;;;;;9.15;2.67;;;;;;;22.41;35.33;98116.78;10304833;28;20070;-55
2022/10/31 14:41:58;;;;;;;12.73;3.28;;;;;;;22.36;35.44;98125.78;10302003;28;20511;-55
2022/10/31 14:47:27;;;;;;;10.60;3.15;;;;;;;22.25;35.54;98117.47;10297602;28;20153;-56
2022/10/31 14:52:26;;;;;;;12.60;3.90;;;;;;;22.16;35.77;98112.56;10298269;28;20085;-55
2022/10/31 14:57:28;;;;;;;14.80;4.70;;;;;;;21.99;36.06;98121.16;10298709;28;20065;-55
2022/10/31 15:03:12;;;;;;;17.10;11.00;;;;;;;21.90;36.33;98113.63;10298655;28;20503;-56
2022/10/31 15:08:28;;;;;;;50.95;11.07;;;;;;;21.68;36.81;98110.97;10296501;28;20503;-55
2022/10/31 15:13:27;;;;;;;28.77;11.05;;;;;;;21.39;37.64;98109.50;10297852;28;20069;-56
2022/10/31 15:18:28;;;;;;;17.80;6.65;;;;;;;21.07;38.41;98112.41;10297649;28;20105;-56
2022/10/31 15:23:29;;;;;;;24.77;7.57;;;;;;;20.69;39.22;98114.69;10297642;28;20681;-56
2022/10/31 15:28:28;;;;;;;34.15;12.23;;;;;;;20.36;39.90;98126.41;10321305;28;20061;-56
2022/10/31 15:33:41;;;;;;;34.60;9.93;;;;;;;20.01;40.85;98125.81;10297905;28;20069;-56
2022/10/31 15:38:40;;;;;;;27.20;10.48;;;;;;;19.65;42.10;98129.59;10297194;28;20469;-56
2022/10/31 15:43:39;;;;;;;30.45;10.45;;;;;;;19.28;42.76;98131.63;10297721;28;20476;-56
2022/10/31 15:48:44;;;;;;;39.83;11.40;;;;;;;18.95;43.16;98134.34;10294176;28;20073;-56
2022/10/31 15:53:50;;;;;;;29.50;10.43;;;;;;;18.68;43.79;98138.56;10293103;28;20065;-56
2022/10/31 15:58:51;;;;;;;26.80;9.95;;;;;;;18.45;44.29;98145.28;10290176;28;20084;-56
2022/10/31 16:04:01;;;;;;;23.75;11.20;;;;;;;18.19;45.19;98152.06;10288930;28;20169;-56
2022/10/31 16:09:01;;;;;;;32.00;11.45;;;;;;;17.91;45.83;98149.25;10290989;28;20069;-55
2022/10/31 16:14:07;;;;;;;26.23;9.32;;;;;;;17.61;46.86;98156.06;10292873;28;20088;-56
2022/10/31 16:19:16;;;;;;;20.80;9.27;;;;;;;17.35;47.49;98168.03;10293261;28;20081;-56
2022/10/31 16:24:33;;;;;;;36.03;17.35;;;;;;;17.09;48.08;98178.19;10292975;28;20073;-57
2022/10/31 16:29:45;;;;;;;31.85;16.20;;;;;;;16.87;48.68;98186.50;10292837;28;20494;-56
2022/10/31 16:34:44;;;;;;;40.75;15.70;;;;;;;16.70;49.52;98191.16;10292570;28;20510;-56
2022/10/31 16:39:43;;;;;;;36.75;14.38;;;;;;;16.46;49.79;98190.69;10291949;28;20157;-56
2022/10/31 16:44:43;;;;;;;;;;;;;;;16.32;50.28;98200.53;10293366;28;20046;-55
2022/10/31 16:49:43;;;;;;;;;;;;;;;16.05;51.59;98207.13;10292188;28;19964;-56
2022/10/31 16:54:41;;;;;;;36.37;16.80;;;;;;;15.86;51.67;98211.78;10291786;28;19960;-55
2022/10/31 16:59:40;;;;;;;;;;;;;;;15.73;52.26;98218.03;10291328;28;20135;-55
2022/10/31 17:04:39;;;;;;;38.92;18.70;;;;;;;15.56;52.72;98221.75;10291608;28;19913;-55
2022/10/31 17:09:38;;;;;;;;;;;;;;;15.44;53.13;98227.16;10291655;28;20030;-55
2022/10/31 17:14:37;;;;;;;31.27;16.42;;;;;;;15.37;53.38;98228.97;10291039;28;20472;-55
2022/10/31 17:19:36;;;;;;;36.60;18.40;;;;;;;15.24;54.00;98236.09;10290963;28;20038;-56
2022/10/31 17:24:35;;;;;;;38.53;19.15;;;;;;;15.12;54.05;98238.84;10291201;28;20113;-55
2022/10/31 17:29:34;;;;;;;37.10;18.33;;;;;;;15.05;54.36;98237.19;10323441;28;20036;-56
2022/10/31 17:34:33;;;;;;;;;;;;;;;14.96;55.42;98255.59;10330385;28;20575;-56
2022/10/31 17:39:31;;;;;;;54.88;30.30;;;;;;;14.85;55.65;98249.59;10329418;28;20008;-56
2022/10/31 17:44:30;;;;;;;54.00;32.33;;;;;;;14.78;56.01;98256.63;10329647;28;20505;-56
2022/10/31 17:49:29;;;;;;;;;;;;;;;14.63;56.68;98263.69;10329546;28;20171;-56
2022/10/31 17:54:28;;;;;;;50.72;31.13;;;;;;;14.49;57.45;98255.13;10328959;28;19968;-56
2022/10/31 17:59:28;;;;;;;44.95;25.58;;;;;;;14.35;57.76;98255.22;10290686;28;20031;-57
2022/10/31 18:04:27;;;;;;;57.92;33.05;;;;;;;14.23;58.23;98260.56;10288127;28;20192;-55
2022/10/31 18:09:27;;;;;;;62.13;36.80;;;;;;;14.04;59.21;98256.34;10287709;28;20635;-56
2022/10/31 18:14:27;;;;;;;;;;;;;;;13.95;59.89;98273.78;10312803;28;20072;-55
2022/10/31 18:19:26;;;;;;;64.20;38.53;;;;;;;13.81;60.87;98270.41;10329734;28;19971;-55
2022/10/31 18:24:27;;;;;;;58.88;35.92;;;;;;;13.77;61.12;98273.91;10328717;28;20107;-55
2022/10/31 18:29:26;;;;;;;59.28;32.42;;;;;;;13.70;61.35;98282.63;10325772;28;20489;-55
2022/10/31 18:34:25;;;;;;;52.58;31.15;;;;;;;13.60;61.65;98273.13;10317224;28;20061;-55
2022/10/31 18:39:24;;;;;;;;;;;;;;;13.50;61.85;98274.88;10296759;28;20069;-55
2022/10/31 18:44:23;;;;;;;59.92;34.13;;;;;;;13.40;62.48;98278.38;10294474;28;19917;-55
2022/10/31 18:49:22;;;;;;;57.97;35.40;;;;;;;13.28;62.87;98280.19;10294423;28;20073;-55
2022/10/31 18:54:21;;;;;;;68.05;40.88;;;;;;;13.20;63.26;98283.69;10293886;28;20088;-55
2022/10/31 18:59:20;;;;;;;70.78;43.78;;;;;;;13.11;63.66;98287.19;10314566;28;20033;-55
2022/10/31 19:04:19;;;;;;;;;;;;;;;12.81;64.02;98256.84;10333353;28;20064;-55
2022/10/31 19:09:18;;;;;;;79.07;48.58;;;;;;;12.90;64.45;98288.09;10332016;28;19912;-56
2022/10/31 19:14:17;;;;;;;78.55;48.80;;;;;;;12.80;64.70;98289.84;10331086;28;20519;-55
2022/10/31 19:19:17;;;;;;;79.85;49.33;;;;;;;12.68;65.36;98290.72;10334534;28;20602;-55
2022/10/31 19:24:16;;;;;;;76.78;49.28;;;;;;;12.59;66.59;98288.13;10335087;28;20084;-55
2022/10/31 19:29:15;;;;;;;79.43;49.45;;;;;;;12.50;66.91;98286.38;10326155;28;20036;-55
2022/10/31 19:34:14;;;;;;;70.30;40.55;;;;;;;12.41;67.48;98293.34;10334490;28;20026;-55
2022/10/31 19:39:13;;;;;;;63.90;40.50;;;;;;;12.31;67.60;98297.66;10333984;28;20037;-55
2022/10/31 19:44:12;;;;;;;67.40;41.92;;;;;;;12.21;67.75;98294.16;10332398;28;20033;-56
2022/10/31 19:49:11;;;;;;;71.45;42.58;;;;;;;12.12;68.46;98301.94;10333826;28;20104;-56
2022/10/31 19:54:11;;;;;;;69.90;42.80;;;;;;;12.06;68.70;98304.53;10333256;28;20073;-56
2022/10/31 19:59:10;;;;;;;71.00;43.75;;;;;;;11.97;68.88;98308.00;10326258;28;20145;-55
2022/10/31 20:04:09;;;;;;;64.53;41.85;;;;;;;11.89;69.84;98314.91;10333311;28;20112;-55
2022/10/31 20:09:12;;;;;;;63.05;39.97;;;;;;;11.80;69.74;98320.94;10332029;28;20103;-56
2022/10/31 20:14:14;;;;;;;57.30;35.60;;;;;;;11.73;70.22;98308.78;10332091;28;20077;-55
2022/10/31 20:19:13;;;;;;;49.10;32.85;;;;;;;11.68;70.01;98321.75;10332810;28;20069;-55
2022/10/31 20:24:12;;;;;;;50.90;31.05;;;;;;;11.61;70.64;98322.59;10331520;28;20033;-55
2022/10/31 20:29:16;;;;;;;54.92;30.95;;;;;;;11.55;70.80;98326.91;10325223;28;20069;-56
2022/10/31 20:34:15;;;;;;;53.92;32.30;;;;;;;11.46;70.89;98325.16;10331586;28;20404;-55
2022/10/31 20:39:14;;;;;;;;;;;;;;;11.40;72.11;98335.50;10331892;28;20958;-56
2022/10/31 20:44:13;;;;;;;75.55;51.67;;;;;;;11.27;71.69;98333.69;10331003;28;20395;-58
2022/10/31 20:49:12;;;;;;;58.42;35.40;;;;;;;11.12;72.68;98331.91;10331135;28;20076;-56
2022/10/31 20:54:12;;;;;;;52.00;33.30;;;;;;;10.93;72.56;98336.09;10330289;28;20033;-56
2022/10/31 20:59:13;;;;;;;59.42;35.65;;;;;;;10.79;72.89;98344.63;10327567;28;20065;-56
2022/10/31 21:04:12;;;;;;;54.97;31.88;;;;;;;10.67;73.02;98346.25;10328802;28;20095;-56
2022/10/31 21:09:11;;;;;;;40.10;28.77;;;;;;;10.60;73.89;98348.78;10330219;28;20455;-55
2022/10/31 21:14:10;;;;;;;47.95;29.10;;;;;;;10.53;73.97;98349.59;10329796;28;20076;-56
2022/10/31 21:19:10;;;;;;;47.58;28.20;;;;;;;10.47;74.09;98346.97;10330254;28;20473;-56
2022/10/31 21:24:12;;;;;;;40.67;26.42;;;;;;;10.48;74.43;98351.28;10329813;28;20069;-56
2022/10/31 21:29:12;;;;;;;51.05;26.98;;;;;;;10.46;74.06;98346.94;10329365;28;20069;-56
2022/10/31 21:34:12;;;;;;;45.85;27.42;;;;;;;10.43;74.61;98337.41;10330878;28;20119;-56
2022/10/31 21:39:10;;;;;;;;;;;;;;;10.42;75.08;98340.84;10331201;28;20084;-56
2022/10/31 21:44:09;;;;;;;44.25;26.25;;;;;;;10.39;75.17;98340.81;10331305;28;19909;-56
2022/10/31 21:49:09;;;;;;;42.78;25.52;;;;;;;10.35;75.06;98339.06;10331017;28;20049;-56
2022/10/31 21:54:27;;;;;;;36.95;23.02;;;;;;;10.30;75.75;98332.97;10331197;28;20099;-57
2022/10/31 21:59:26;;;;;;;33.28;21.83;;;;;;;10.26;75.14;98337.25;10330004;28;20088;-56
2022/10/31 22:04:26;;;;;;;34.72;21.08;;;;;;;10.19;76.12;98333.75;10335800;28;20076;-56
2022/10/31 22:09:25;;;;;;;38.67;23.48;;;;;;;10.22;76.69;98343.28;10339275;28;20532;-56
2022/10/31 22:14:24;;;;;;;32.38;21.42;;;;;;;10.17;76.88;98348.41;10338739;28;20508;-56
2022/10/31 22:19:23;;;;;;;27.13;17.40;;;;;;;10.15;77.47;98344.94;10338185;28;20037;-56
2022/10/31 22:24:22;;;;;;;33.60;18.92;;;;;;;10.11;76.87;98348.34;10337975;28;20049;-56
2022/10/31 22:29:21;;;;;;;32.50;18.92;;;;;;;10.04;77.38;98356.03;10337909;28;20037;-56
2022/10/31 22:34:20;;;;;;;32.97;20.30;;;;;;;9.94;77.49;98352.50;10337553;28;20096;-56
2022/10/31 22:39:19;;;;;;;34.42;20.88;;;;;;;9.79;78.15;98360.94;10337077;28;20045;-55
2022/10/31 22:44:18;;;;;;;33.22;19.23;;;;;;;9.68;78.94;98358.22;10337712;28;20103;-56
2022/10/31 22:49:17;;;;;;;35.83;19.33;;;;;;;9.60;78.69;98357.25;10337425;28;20103;-56
2022/10/31 22:54:17;;;;;;;35.85;21.88;;;;;;;9.53;78.58;98353.72;10337500;28;20471;-56
2022/10/31 22:59:16;;;;;;;30.95;20.10;;;;;;;9.40;79.24;98361.34;10331071;28;20072;-56
2022/10/31 23:04:15;;;;;;;28.90;18.23;;;;;;;9.34;79.01;98365.56;10334505;28;20033;-56
2022/10/31 23:09:16;;;;;;;38.58;20.30;;;;;;;9.27;79.05;98358.53;10333972;28;20048;-56
2022/10/31 23:14:19;;;;;;;31.45;19.05;;;;;;;9.22;79.31;98354.13;10332786;28;20077;-56
2022/10/31 23:19:21;;;;;;;32.55;19.38;;;;;;;9.17;79.07;98348.88;10331239;28;20424;-56
2022/10/31 23:24:24;;;;;;;35.83;20.42;;;;;;;9.12;79.54;98359.19;10331840;28;20080;-56